Time;durP1;ratioP1;P1;durP2;ratioP2;P2;SDS_P1;SDS_P2;PMS_P1;PMS_P2;Temp;Humidity;BMP_temperature;BMP_pressure;BME280_temperature;BME280_humidity;BME280_pressure;Samples;Min_cycle;Max_cycle;Signal;HPM_P1;HPM_P2
2022/03/08 00:01:56;;;;;;;38.57;27.53;;;;;;;;;;5004307;28;20134;-49
2022/03/08 00:04:24;;;;;;;43.87;27.13;;;;;;;;;;4988086;28;20439;-50
2022/03/08 00:06:50;;;;;;;43.80;27.43;;;;;;;;;;4997767;28;20473;-52
2022/03/08 00:09:16;;;;;;;41.20;28.67;;;;;;;;;;4994090;28;20117;-48
2022/03/08 00:11:42;;;;;;;41.50;26.87;;;;;;;;;;4994775;28;20117;-49
2022/03/08 00:14:08;;;;;;;40.87;26.73;;;;;;;;;;4982856;28;20564;-49
2022/03/08 00:19:37;;;;;;;41.87;27.20;;;;;;;;;;4985792;28;20037;-50
2022/03/08 00:22:04;;;;;;;39.33;27.03;;;;;;;;;;4985571;28;20030;-48
2022/03/08 00:24:30;;;;;;;43.73;26.37;;;;;;;;;;4992526;28;20121;-48
2022/03/08 00:26:56;;;;;;;39.17;26.80;;;;;;;;;;4975893;28;20118;-48
2022/03/08 00:29:22;;;;;;;36.10;24.33;;;;;;;;;;5001597;28;20474;-47
2022/03/08 00:31:48;;;;;;;43.13;26.77;;;;;;;;;;4985871;28;20028;-48
2022/03/08 00:34:14;;;;;;;39.63;25.70;;;;;;;;;;4984507;28;20094;-48
2022/03/08 00:36:40;;;;;;;38.97;26.10;;;;;;;;;;5003935;28;20383;-48
2022/03/08 00:39:06;;;;;;;39.27;26.57;;;;;;;;;;4990675;28;20438;-49
2022/03/08 00:41:32;;;;;;;38.47;25.57;;;;;;;;;;4996893;28;20030;-48
2022/03/08 00:43:58;;;;;;;37.50;25.00;;;;;;;;;;4997431;28;20563;-49
2022/03/08 00:46:24;;;;;;;40.97;26.43;;;;;;;;;;4994850;28;20492;-48
2022/03/08 00:48:50;;;;;;;40.10;26.70;;;;;;;;;;5003397;28;20026;-48
2022/03/08 00:51:16;;;;;;;39.77;26.13;;;;;;;;;;4993310;28;20074;-47
2022/03/08 00:53:43;;;;;;;38.20;25.93;;;;;;;;;;5008289;28;20494;-51
2022/03/08 00:56:09;;;;;;;38.40;25.17;;;;;;;;;;4991776;28;20050;-47
2022/03/08 00:58:36;;;;;;;36.20;25.67;;;;;;;;;;5008133;28;20030;-49
2022/03/08 01:01:02;;;;;;;38.87;25.53;;;;;;;;;;5010076;28;20068;-48
2022/03/08 01:03:28;;;;;;;37.83;24.30;;;;;;;;;;4999291;28;20045;-47
2022/03/08 01:05:54;;;;;;;37.03;25.13;;;;;;;;;;4996098;28;20186;-47
2022/03/08 01:08:39;;;;;;;37.53;25.03;;;;;;;;;;5005359;28;20641;-48
2022/03/08 01:11:05;;;;;;;38.07;25.40;;;;;;;;;;4994751;28;20023;-49
2022/03/08 01:14:02;;;;;;;36.30;25.30;;;;;;;;;;4984014;28;20060;-47
2022/03/08 01:16:28;;;;;;;38.17;25.07;;;;;;;;;;4998950;28;20031;-48
2022/03/08 01:18:54;;;;;;;34.23;23.13;;;;;;;;;;5010481;28;20026;-48
2022/03/08 01:21:20;;;;;;;36.73;23.90;;;;;;;;;;4982751;28;20103;-48
2022/03/08 01:23:46;;;;;;;34.40;21.90;;;;;;;;;;5007971;28;20034;-48
2022/03/08 01:26:14;;;;;;;33.17;22.70;;;;;;;;;;4992943;28;20035;-51
2022/03/08 01:28:40;;;;;;;34.93;22.50;;;;;;;;;;5002566;28;20167;-47
2022/03/08 01:31:06;;;;;;;32.13;21.10;;;;;;;;;;4983677;28;20037;-48
2022/03/08 01:33:32;;;;;;;36.67;21.77;;;;;;;;;;5009895;28;20026;-49
2022/03/08 01:35:59;;;;;;;34.13;21.83;;;;;;;;;;4995961;28;20041;-47
2022/03/08 01:38:25;;;;;;;32.80;21.70;;;;;;;;;;5001699;28;20026;-49
2022/03/08 01:40:51;;;;;;;33.27;21.43;;;;;;;;;;4988873;28;20026;-48
2022/03/08 01:43:17;;;;;;;34.13;22.10;;;;;;;;;;5009084;28;20535;-49
2022/03/08 01:45:43;;;;;;;29.87;19.83;;;;;;;;;;4994755;28;20420;-50
2022/03/08 01:48:09;;;;;;;28.47;19.63;;;;;;;;;;4994920;28;20034;-49
2022/03/08 01:50:36;;;;;;;31.20;19.50;;;;;;;;;;4987032;28;20389;-47
2022/03/08 01:53:02;;;;;;;29.33;18.80;;;;;;;;;;4991276;28;20042;-48
2022/03/08 01:55:28;;;;;;;31.40;19.07;;;;;;;;;;4983176;28;20105;-48
2022/03/08 01:57:54;;;;;;;29.40;19.83;;;;;;;;;;4987727;28;20027;-46
2022/03/08 02:00:22;;;;;;;27.03;18.70;;;;;;;;;;4972404;28;20070;-47
2022/03/08 02:02:48;;;;;;;29.70;19.73;;;;;;;;;;4984586;28;20034;-48
2022/03/08 02:05:14;;;;;;;27.43;18.10;;;;;;;;;;4987100;28;20026;-48
2022/03/08 02:07:40;;;;;;;30.03;18.67;;;;;;;;;;4987867;28;20055;-49
2022/03/08 02:10:07;;;;;;;27.70;19.40;;;;;;;;;;4967659;28;20023;-49
2022/03/08 02:12:33;;;;;;;27.17;19.20;;;;;;;;;;4977621;28;20077;-48
2022/03/08 02:14:59;;;;;;;26.20;17.77;;;;;;;;;;4981602;28;20062;-48
2022/03/08 02:17:26;;;;;;;30.27;19.70;;;;;;;;;;4993097;28;20392;-49
2022/03/08 02:19:56;;;;;;;25.60;18.27;;;;;;;;;;4986704;28;20023;-48
2022/03/08 02:22:22;;;;;;;26.47;18.30;;;;;;;;;;4975807;28;20038;-50
2022/03/08 02:24:48;;;;;;;28.10;18.43;;;;;;;;;;4987996;28;20349;-47
2022/03/08 02:27:14;;;;;;;25.17;18.10;;;;;;;;;;4990984;28;20023;-47
2022/03/08 02:30:14;;;;;;;26.73;17.97;;;;;;;;;;4993508;28;20028;-48
2022/03/08 02:32:41;;;;;;;28.87;18.40;;;;;;;;;;4982881;28;20495;-49
2022/03/08 02:35:17;;;;;;;27.33;18.30;;;;;;;;;;4982358;28;20149;-47
2022/03/08 02:37:45;;;;;;;28.30;18.03;;;;;;;;;;4967577;28;20034;-48
2022/03/08 02:40:15;;;;;;;23.67;18.30;;;;;;;;;;4975962;28;20459;-48
2022/03/08 02:42:41;;;;;;;27.97;18.13;;;;;;;;;;4965419;28;20038;-48
2022/03/08 02:45:08;;;;;;;27.00;19.30;;;;;;;;;;4970384;28;20030;-48
2022/03/08 02:47:34;;;;;;;22.43;16.50;;;;;;;;;;4973492;28;20030;-48
2022/03/08 02:50:00;;;;;;;29.13;19.10;;;;;;;;;;4986264;28;20045;-49
2022/03/08 02:52:26;;;;;;;26.10;18.60;;;;;;;;;;4980727;28;20105;-48
2022/03/08 02:54:52;;;;;;;25.97;18.00;;;;;;;;;;4999739;28;20134;-48
2022/03/08 02:57:19;;;;;;;26.47;17.80;;;;;;;;;;4986941;28;20032;-51
2022/03/08 02:59:45;;;;;;;24.10;16.90;;;;;;;;;;5006434;28;20026;-48
2022/03/08 03:02:11;;;;;;;28.77;18.13;;;;;;;;;;4997359;28;20052;-49
2022/03/08 03:04:37;;;;;;;27.73;18.70;;;;;;;;;;5006466;28;20113;-48
2022/03/08 03:07:03;;;;;;;25.53;18.30;;;;;;;;;;4983805;28;20031;-49
2022/03/08 03:09:29;;;;;;;27.43;18.60;;;;;;;;;;4996486;28;20113;-49
2022/03/08 03:11:55;;;;;;;25.40;18.13;;;;;;;;;;5005298;28;20022;-48
2022/03/08 03:14:21;;;;;;;27.23;19.57;;;;;;;;;;4986738;28;20057;-51
2022/03/08 03:16:47;;;;;;;25.17;17.47;;;;;;;;;;4998599;28;20036;-52
2022/03/08 03:19:13;;;;;;;26.83;18.13;;;;;;;;;;4989990;28;20026;-53
2022/03/08 03:21:39;;;;;;;28.63;19.10;;;;;;;;;;4998225;28;20392;-48
2022/03/08 03:24:06;;;;;;;28.20;18.70;;;;;;;;;;5003782;28;20065;-50
2022/03/08 03:26:32;;;;;;;26.90;18.67;;;;;;;;;;5000541;28;20072;-48
2022/03/08 03:28:58;;;;;;;28.87;19.10;;;;;;;;;;4984485;28;20567;-48
2022/03/08 03:31:24;;;;;;;29.10;19.83;;;;;;;;;;5010408;28;20101;-48
2022/03/08 03:33:50;;;;;;;28.03;19.30;;;;;;;;;;5004182;28;20157;-48
2022/03/08 03:36:16;;;;;;;27.47;18.17;;;;;;;;;;5001690;28;20058;-49
2022/03/08 03:38:42;;;;;;;28.83;20.00;;;;;;;;;;4981671;28;20122;-47
2022/03/08 03:41:08;;;;;;;28.63;18.80;;;;;;;;;;4989445;28;20074;-48
2022/03/08 03:43:34;;;;;;;27.67;18.20;;;;;;;;;;4999625;28;20038;-48
2022/03/08 03:46:00;;;;;;;29.83;18.90;;;;;;;;;;4999209;28;20498;-49
2022/03/08 03:48:26;;;;;;;26.77;18.37;;;;;;;;;;5000179;28;20054;-49
2022/03/08 03:50:52;;;;;;;26.90;19.07;;;;;;;;;;4992588;28;20023;-51
2022/03/08 03:53:18;;;;;;;28.53;18.87;;;;;;;;;;5007778;28;20728;-51
2022/03/08 03:55:44;;;;;;;27.27;19.43;;;;;;;;;;4990915;28;20023;-50
2022/03/08 03:58:10;;;;;;;29.53;18.57;;;;;;;;;;4991571;28;20530;-49
2022/03/08 04:00:36;;;;;;;27.27;18.70;;;;;;;;;;4994913;28;20023;-48
2022/03/08 04:03:02;;;;;;;24.57;17.90;;;;;;;;;;5005249;28;20454;-47
2022/03/08 04:05:29;;;;;;;25.57;17.43;;;;;;;;;;4993981;28;20112;-49
2022/03/08 04:07:55;;;;;;;24.27;18.30;;;;;;;;;;4987964;28;20018;-48
2022/03/08 04:10:21;;;;;;;26.93;18.23;;;;;;;;;;5008577;28;20037;-49
2022/03/08 04:12:47;;;;;;;25.43;18.00;;;;;;;;;;4991218;28;20027;-48
2022/03/08 04:15:13;;;;;;;28.07;19.80;;;;;;;;;;5008120;28;20041;-50
2022/03/08 04:17:39;;;;;;;28.60;19.40;;;;;;;;;;4991253;28;20029;-48
2022/03/08 04:20:06;;;;;;;28.47;18.33;;;;;;;;;;4977383;28;20033;-48
2022/03/08 04:22:32;;;;;;;27.17;18.07;;;;;;;;;;4993107;28;20513;-48
2022/03/08 04:24:59;;;;;;;25.63;18.90;;;;;;;;;;5007525;28;20030;-49
2022/03/08 04:27:25;;;;;;;26.63;18.90;;;;;;;;;;5001787;28;20029;-49
2022/03/08 04:29:51;;;;;;;25.93;19.03;;;;;;;;;;5001074;28;20468;-49
2022/03/08 04:32:18;;;;;;;25.60;18.17;;;;;;;;;;4992970;28;20045;-50
2022/03/08 04:34:44;;;;;;;27.33;19.90;;;;;;;;;;5009318;28;20044;-48
2022/03/08 04:37:10;;;;;;;30.93;19.73;;;;;;;;;;4990302;28;20450;-48
2022/03/08 04:39:36;;;;;;;24.87;19.37;;;;;;;;;;5007765;28;20030;-47
2022/03/08 04:42:02;;;;;;;26.90;18.30;;;;;;;;;;5001859;28;20135;-47
2022/03/08 04:44:28;;;;;;;27.20;19.13;;;;;;;;;;5014785;28;20376;-48
2022/03/08 04:46:54;;;;;;;27.03;19.50;;;;;;;;;;4997986;28;20040;-47
2022/03/08 04:49:20;;;;;;;28.17;19.20;;;;;;;;;;5011554;28;20031;-48
2022/03/08 04:51:46;;;;;;;26.97;18.23;;;;;;;;;;4996316;28;20026;-47
2022/03/08 04:54:12;;;;;;;27.97;19.17;;;;;;;;;;5005126;28;20461;-47
2022/03/08 04:56:38;;;;;;;24.43;18.53;;;;;;;;;;5001053;28;20034;-47
2022/03/08 04:59:04;;;;;;;27.53;18.57;;;;;;;;;;5011293;28;20034;-49
2022/03/08 05:01:30;;;;;;;25.03;17.63;;;;;;;;;;5011589;28;20101;-48
2022/03/08 05:03:56;;;;;;;29.33;19.13;;;;;;;;;;5003186;28;20495;-47
2022/03/08 05:06:22;;;;;;;28.10;19.23;;;;;;;;;;5002660;28;20476;-48
2022/03/08 05:08:48;;;;;;;25.57;18.03;;;;;;;;;;5009284;28;20030;-48
2022/03/08 05:11:14;;;;;;;30.90;19.57;;;;;;;;;;5012321;28;20030;-47
2022/03/08 05:13:41;;;;;;;27.50;17.93;;;;;;;;;;5000204;28;20048;-49
2022/03/08 05:16:07;;;;;;;26.83;19.93;;;;;;;;;;4997036;28;20038;-47
2022/03/08 05:18:33;;;;;;;26.50;17.97;;;;;;;;;;5005460;28;20036;-47
2022/03/08 05:20:59;;;;;;;28.00;18.57;;;;;;;;;;5014305;28;20026;-51
2022/03/08 05:23:25;;;;;;;25.83;18.47;;;;;;;;;;4993934;28;20554;-47
2022/03/08 05:25:51;;;;;;;29.07;17.57;;;;;;;;;;5002156;28;20021;-49
2022/03/08 05:28:17;;;;;;;25.57;16.60;;;;;;;;;;5008469;28;20044;-47
2022/03/08 05:30:45;;;;;;;28.40;18.43;;;;;;;;;;5013843;28;20026;-47
2022/03/08 05:33:11;;;;;;;29.83;17.90;;;;;;;;;;4997092;28;20135;-46
2022/03/08 05:35:37;;;;;;;28.17;18.23;;;;;;;;;;5009119;28;20085;-47
2022/03/08 05:38:03;;;;;;;27.40;17.70;;;;;;;;;;4994139;28;20041;-48
2022/03/08 05:40:29;;;;;;;26.33;18.27;;;;;;;;;;5002947;28;20038;-49
2022/03/08 05:42:56;;;;;;;26.13;17.23;;;;;;;;;;4997298;28;20244;-47
2022/03/08 05:45:22;;;;;;;26.30;17.73;;;;;;;;;;5004539;28;20018;-47
2022/03/08 05:47:48;;;;;;;26.60;18.40;;;;;;;;;;5002418;28;20041;-47
2022/03/08 05:50:14;;;;;;;26.50;18.00;;;;;;;;;;5004953;28;20359;-48
2022/03/08 05:52:40;;;;;;;25.10;17.40;;;;;;;;;;4999087;28;20038;-47
2022/03/08 05:55:06;;;;;;;23.93;17.23;;;;;;;;;;5010160;28;20050;-50
2022/03/08 05:57:32;;;;;;;30.30;18.20;;;;;;;;;;4994186;28;20025;-49
2022/03/08 05:59:58;;;;;;;27.03;18.53;;;;;;;;;;5002446;28;20025;-47
2022/03/08 06:02:25;;;;;;;25.07;16.37;;;;;;;;;;5000801;28;20073;-47
2022/03/08 06:04:51;;;;;;;26.07;17.57;;;;;;;;;;4984549;28;20038;-48
2022/03/08 06:07:17;;;;;;;25.67;16.80;;;;;;;;;;5006858;28;20026;-47
2022/03/08 06:09:44;;;;;;;24.30;16.87;;;;;;;;;;5011372;28;20022;-47
2022/03/08 06:12:10;;;;;;;28.30;18.00;;;;;;;;;;5002949;28;20093;-47
2022/03/08 06:14:36;;;;;;;28.47;17.83;;;;;;;;;;5006801;28;20050;-50
2022/03/08 06:17:03;;;;;;;26.40;15.90;;;;;;;;;;4989788;28;20073;-49
2022/03/08 06:19:29;;;;;;;24.70;17.03;;;;;;;;;;5009267;28;20026;-48
2022/03/08 06:21:55;;;;;;;25.33;17.63;;;;;;;;;;4997410;28;20112;-48
2022/03/08 06:24:21;;;;;;;26.47;16.63;;;;;;;;;;4998161;28;20103;-49
2022/03/08 06:26:47;;;;;;;23.90;17.03;;;;;;;;;;5001631;28;20025;-51
2022/03/08 06:29:13;;;;;;;23.77;17.23;;;;;;;;;;4978224;28;20030;-47
2022/03/08 06:31:39;;;;;;;25.30;17.30;;;;;;;;;;4984450;28;20029;-48
2022/03/08 06:34:05;;;;;;;21.73;15.97;;;;;;;;;;5002481;28;20391;-50
2022/03/08 06:36:32;;;;;;;25.77;17.63;;;;;;;;;;5000516;28;20369;-49
2022/03/08 06:38:58;;;;;;;26.13;17.27;;;;;;;;;;4999914;28;20025;-47
2022/03/08 06:41:26;;;;;;;25.93;17.60;;;;;;;;;;4995754;28;20034;-48
2022/03/08 06:43:52;;;;;;;22.43;16.90;;;;;;;;;;4979618;28;20053;-46
2022/03/08 06:46:18;;;;;;;29.00;17.60;;;;;;;;;;5003858;28;20037;-49
2022/03/08 06:48:44;;;;;;;25.63;16.90;;;;;;;;;;5001118;28;20092;-48
2022/03/08 06:51:10;;;;;;;24.63;16.43;;;;;;;;;;5008966;28;20400;-51
2022/03/08 06:53:36;;;;;;;24.50;17.40;;;;;;;;;;4979803;28;20081;-48
2022/03/08 06:56:02;;;;;;;26.30;17.87;;;;;;;;;;5004313;28;20019;-49
2022/03/08 06:58:29;;;;;;;25.10;16.57;;;;;;;;;;4986576;28;20472;-48
2022/03/08 07:00:55;;;;;;;26.17;17.47;;;;;;;;;;5005596;28;20504;-52
2022/03/08 07:03:21;;;;;;;23.83;16.57;;;;;;;;;;4992116;28;20903;-47
2022/03/08 07:05:47;;;;;;;24.80;16.80;;;;;;;;;;5005054;28;20034;-47
2022/03/08 07:08:13;;;;;;;24.47;17.43;;;;;;;;;;4993072;28;20081;-48
2022/03/08 07:10:50;;;;;;;28.03;18.10;;;;;;;;;;5010228;28;20033;-48
2022/03/08 07:13:16;;;;;;;25.93;18.17;;;;;;;;;;4997822;28;20023;-53
2022/03/08 07:15:42;;;;;;;25.50;19.10;;;;;;;;;;5006662;28;20026;-49
2022/03/08 07:18:08;;;;;;;23.80;17.70;;;;;;;;;;4986808;28;20502;-48
2022/03/08 07:20:34;;;;;;;26.77;17.40;;;;;;;;;;4996064;28;20140;-51
2022/03/08 07:23:00;;;;;;;23.73;17.33;;;;;;;;;;4998642;28;20042;-47
2022/03/08 07:25:27;;;;;;;26.07;17.97;;;;;;;;;;5007539;28;20026;-48
2022/03/08 07:27:53;;;;;;;27.00;17.80;;;;;;;;;;5002274;28;20136;-48
2022/03/08 07:30:19;;;;;;;24.00;17.13;;;;;;;;;;4977904;28;20034;-53
2022/03/08 07:32:45;;;;;;;27.17;18.73;;;;;;;;;;4992214;28;20037;-53
2022/03/08 07:35:11;;;;;;;25.90;16.77;;;;;;;;;;4993670;28;20329;-47
2022/03/08 07:37:37;;;;;;;27.30;18.00;;;;;;;;;;4999015;28;20034;-47
2022/03/08 07:40:05;;;;;;;25.87;17.97;;;;;;;;;;4981708;28;20023;-52
2022/03/08 07:42:31;;;;;;;26.67;16.93;;;;;;;;;;4973889;28;20018;-48
2022/03/08 07:44:57;;;;;;;26.40;18.47;;;;;;;;;;4992316;28;20029;-49
2022/03/08 07:47:23;;;;;;;24.33;17.73;;;;;;;;;;5003445;28;20026;-48
2022/03/08 07:56:03;;;;;;;29.70;17.13;;;;;;;;;;4979640;28;20084;-49
2022/03/08 07:58:30;;;;;;;25.97;18.40;;;;;;;;;;4990395;28;20026;-48
2022/03/08 08:00:56;;;;;;;23.63;16.93;;;;;;;;;;4981824;28;20496;-49
2022/03/08 08:03:22;;;;;;;24.37;16.90;;;;;;;;;;4972371;28;20042;-50
2022/03/08 08:05:48;;;;;;;27.53;18.70;;;;;;;;;;4972982;28;20038;-52
2022/03/08 08:08:14;;;;;;;24.50;16.50;;;;;;;;;;4983156;28;20026;-50
2022/03/08 08:10:40;;;;;;;27.23;17.60;;;;;;;;;;4981735;28;20436;-52
2022/03/08 08:13:06;;;;;;;24.17;16.87;;;;;;;;;;4977940;28;20031;-51
2022/03/08 08:15:32;;;;;;;23.60;17.20;;;;;;;;;;4963055;28;20035;-48
2022/03/08 08:17:58;;;;;;;23.70;16.40;;;;;;;;;;4955091;28;20389;-51
2022/03/08 08:20:24;;;;;;;22.50;16.90;;;;;;;;;;4983458;28;20028;-49
2022/03/08 08:22:50;;;;;;;23.70;15.87;;;;;;;;;;4988830;28;20026;-51
2022/03/08 08:25:16;;;;;;;25.20;16.63;;;;;;;;;;4972152;28;20035;-50
2022/03/08 08:27:42;;;;;;;24.53;16.07;;;;;;;;;;4990090;28;20022;-50
2022/03/08 08:30:10;;;;;;;25.23;16.90;;;;;;;;;;4981046;28;20027;-54
2022/03/08 08:32:36;;;;;;;21.70;16.33;;;;;;;;;;4987741;28;20026;-52
2022/03/08 08:35:03;;;;;;;22.37;15.73;;;;;;;;;;4970746;28;20039;-52
2022/03/08 08:37:29;;;;;;;24.23;17.20;;;;;;;;;;4988391;28;20018;-54
2022/03/08 08:39:56;;;;;;;24.47;16.47;;;;;;;;;;4971120;28;20027;-49
2022/03/08 08:42:22;;;;;;;25.23;15.63;;;;;;;;;;4977522;28;20034;-52
2022/03/08 08:44:48;;;;;;;28.10;17.27;;;;;;;;;;4976572;28;20474;-50
2022/03/08 08:47:14;;;;;;;24.37;15.30;;;;;;;;;;4983355;28;20027;-48
2022/03/08 08:49:40;;;;;;;23.13;16.27;;;;;;;;;;4984651;28;20031;-49
2022/03/08 08:52:06;;;;;;;24.53;15.03;;;;;;;;;;4973723;28;20053;-51
2022/03/08 08:54:32;;;;;;;23.80;15.97;;;;;;;;;;4985814;28;20126;-48
2022/03/08 08:56:58;;;;;;;23.87;16.33;;;;;;;;;;4972729;28;20436;-49
2022/03/08 08:59:24;;;;;;;23.23;15.90;;;;;;;;;;4974946;28;20496;-50
2022/03/08 09:01:50;;;;;;;21.40;15.93;;;;;;;;;;4973467;28;20435;-51
2022/03/08 09:04:16;;;;;;;19.47;14.90;;;;;;;;;;4980770;28;20161;-53
2022/03/08 09:06:42;;;;;;;19.67;15.30;;;;;;;;;;4989838;28;20085;-51
2022/03/08 09:09:09;;;;;;;25.60;15.20;;;;;;;;;;4986288;28;20030;-51
2022/03/08 09:11:36;;;;;;;24.23;15.80;;;;;;;;;;4982599;28;20026;-53
2022/03/08 09:14:04;;;;;;;23.23;16.07;;;;;;;;;;4990188;28;20027;-51
2022/03/08 09:16:30;;;;;;;24.57;17.07;;;;;;;;;;4981574;28;20046;-52
2022/03/08 09:18:56;;;;;;;19.67;14.77;;;;;;;;;;4986972;28;20058;-49
2022/03/08 09:21:22;;;;;;;23.33;15.13;;;;;;;;;;4978788;28;20113;-50
2022/03/08 09:23:49;;;;;;;23.40;15.47;;;;;;;;;;4982605;28;20030;-49
2022/03/08 09:26:15;;;;;;;26.60;15.73;;;;;;;;;;4989813;28;20034;-49
2022/03/08 09:28:41;;;;;;;25.23;14.13;;;;;;;;;;4995401;28;20054;-51
2022/03/08 09:31:07;;;;;;;24.53;14.33;;;;;;;;;;4971661;28;20051;-48
2022/03/08 09:33:33;;;;;;;19.40;14.33;;;;;;;;;;4994858;28;20040;-48
2022/03/08 09:35:59;;;;;;;24.30;16.90;;;;;;;;;;4976639;28;20022;-51
2022/03/08 09:38:25;;;;;;;21.43;14.57;;;;;;;;;;4994416;28;20027;-46
2022/03/08 09:40:52;;;;;;;17.37;13.50;;;;;;;;;;4980954;28;20034;-49
2022/03/08 09:43:19;;;;;;;19.57;13.87;;;;;;;;;;4975269;28;20522;-48
2022/03/08 09:45:45;;;;;;;22.63;14.27;;;;;;;;;;4969933;28;20377;-47
2022/03/08 09:48:11;;;;;;;21.77;14.13;;;;;;;;;;4980516;28;20081;-47
2022/03/08 09:50:37;;;;;;;26.07;14.60;;;;;;;;;;4989157;28;20026;-48
2022/03/08 09:53:04;;;;;;;27.30;13.90;;;;;;;;;;4987503;28;20058;-49
2022/03/08 09:55:30;;;;;;;19.10;14.27;;;;;;;;;;4990421;28;20061;-53
2022/03/08 09:57:56;;;;;;;18.73;14.03;;;;;;;;;;4971005;28;20045;-46
2022/03/08 10:00:23;;;;;;;19.27;12.90;;;;;;;;;;4987928;28;20105;-51
2022/03/08 10:02:54;;;;;;;16.50;13.17;;;;;;;;;;4985817;28;20170;-52
2022/03/08 10:05:25;;;;;;;17.00;13.30;;;;;;;;;;4992066;28;20061;-54
2022/03/08 10:08:19;;;;;;;26.30;16.87;;;;;;;;;;4981055;28;20117;-49
2022/03/08 10:10:46;;;;;;;19.87;13.53;;;;;;;;;;4976073;28;20078;-48
2022/03/08 10:13:13;;;;;;;20.20;13.73;;;;;;;;;;4990696;28;20407;-49
2022/03/08 10:15:39;;;;;;;20.33;15.53;;;;;;;;;;4979044;28;20477;-46
2022/03/08 10:18:05;;;;;;;16.03;13.20;;;;;;;;;;4971798;28;20061;-49
2022/03/08 10:20:31;;;;;;;19.87;13.87;;;;;;;;;;4990526;28;20046;-48
2022/03/08 10:22:58;;;;;;;21.60;15.30;;;;;;;;;;4970227;28;20042;-49
2022/03/08 10:25:25;;;;;;;18.50;12.93;;;;;;;;;;4989410;28;20097;-48
2022/03/08 10:27:54;;;;;;;15.77;11.70;;;;;;;;;;4971362;28;20077;-47
2022/03/08 10:30:21;;;;;;;16.97;12.23;;;;;;;;;;4981850;28;20035;-50
2022/03/08 10:32:47;;;;;;;16.60;12.00;;;;;;;;;;4986717;28;20037;-48
2022/03/08 10:35:22;;;;;;;20.43;12.47;;;;;;;;;;4993451;28;20105;-50
2022/03/08 10:37:48;;;;;;;19.92;13.20;;;;;;;;;;4972951;28;20031;-48
2022/03/08 10:40:21;;;;;;;19.83;13.27;;;;;;;;;;4988944;28;20496;-51
2022/03/08 10:42:57;;;;;;;20.53;13.33;;;;;;;;;;4979491;28;20366;-50
2022/03/08 10:45:26;;;;;;;18.83;13.67;;;;;;;;;;4993343;28;20806;-51
2022/03/08 10:47:53;;;;;;;15.53;11.37;;;;;;;;;;4981191;28;20022;-51
2022/03/08 10:50:20;;;;;;;14.77;11.43;;;;;;;;;;4987452;28;20023;-49
2022/03/08 10:52:47;;;;;;;19.90;10.90;;;;;;;;;;4986646;28;20061;-49
2022/03/08 10:55:15;;;;;;;14.13;10.30;;;;;;;;;;4988995;28;20121;-53
2022/03/08 10:57:42;;;;;;;16.03;10.87;;;;;;;;;;4964958;28;20023;-48
2022/03/08 11:00:11;;;;;;;15.30;10.50;;;;;;;;;;4983011;28;20026;-50
2022/03/08 11:02:47;;;;;;;15.90;10.47;;;;;;;;;;4989551;28;20030;-48
2022/03/08 11:05:14;;;;;;;15.80;10.63;;;;;;;;;;4965558;28;20172;-49
2022/03/08 11:07:40;;;;;;;15.57;10.17;;;;;;;;;;4973061;28;20036;-52
2022/03/08 11:10:10;;;;;;;12.63;9.67;;;;;;;;;;4993251;28;20022;-53
2022/03/08 11:12:37;;;;;;;16.30;10.43;;;;;;;;;;4990285;28;20408;-49
2022/03/08 11:15:03;;;;;;;18.30;11.47;;;;;;;;;;4981293;28;20410;-51
2022/03/08 11:17:33;;;;;;;14.13;9.50;;;;;;;;;;4980666;28;20022;-51
2022/03/08 11:19:59;;;;;;;13.53;10.87;;;;;;;;;;4990575;28;20032;-52
2022/03/08 11:22:25;;;;;;;15.63;9.20;;;;;;;;;;4978404;28;20023;-52
2022/03/08 11:24:52;;;;;;;16.00;10.23;;;;;;;;;;4988579;28;20030;-48
2022/03/08 11:27:19;;;;;;;14.97;10.33;;;;;;;;;;4982524;28;20023;-50
2022/03/08 11:29:45;;;;;;;14.47;10.10;;;;;;;;;;4992541;28;20023;-53
2022/03/08 11:32:15;;;;;;;15.03;10.33;;;;;;;;;;4984787;28;20049;-49
2022/03/08 11:34:51;;;;;;;13.43;9.73;;;;;;;;;;4980134;28;20034;-48
2022/03/08 11:37:23;;;;;;;16.13;9.83;;;;;;;;;;4974123;28;20366;-48
2022/03/08 11:40:12;;;;;;;13.90;9.73;;;;;;;;;;4991758;28;20041;-49
2022/03/08 11:42:44;;;;;;;22.10;13.30;;;;;;;;;;4978719;28;20031;-52
2022/03/08 11:45:12;;;;;;;14.83;10.33;;;;;;;;;;4979381;28;20033;-49
2022/03/08 11:48:15;;;;;;;12.13;9.43;;;;;;;;;;4983128;28;20026;-49
2022/03/08 11:50:44;;;;;;;13.27;9.50;;;;;;;;;;4992490;28;20396;-47
2022/03/08 11:53:15;;;;;;;15.23;9.33;;;;;;;;;;4958430;28;20080;-47
2022/03/08 11:55:44;;;;;;;10.07;7.83;;;;;;;;;;4988353;28;20058;-47
2022/03/08 11:58:11;;;;;;;12.10;8.97;;;;;;;;;;4991342;28;20471;-48
2022/03/08 12:00:38;;;;;;;10.27;7.83;;;;;;;;;;5005785;28;20025;-48
2022/03/08 12:03:05;;;;;;;13.50;8.63;;;;;;;;;;4992974;28;20042;-47
2022/03/08 12:05:40;;;;;;;15.73;9.17;;;;;;;;;;5007200;28;20035;-46
2022/03/08 12:08:22;;;;;;;12.17;8.27;;;;;;;;;;4993767;28;20465;-46
2022/03/08 12:10:57;;;;;;;10.90;8.30;;;;;;;;;;4995874;28;20038;-50
2022/03/08 12:13:24;;;;;;;12.73;8.63;;;;;;;;;;4979902;28;20116;-51
2022/03/08 12:16:08;;;;;;;11.43;7.70;;;;;;;;;;5000391;28;20143;-47
2022/03/08 12:18:46;;;;;;;10.70;7.78;;;;;;;;;;5005076;28;20080;-48
2022/03/08 12:21:16;;;;;;;11.30;8.07;;;;;;;;;;4993525;28;20069;-46
2022/03/08 12:23:49;;;;;;;13.43;8.23;;;;;;;;;;4965112;28;20399;-50
2022/03/08 12:26:34;;;;;;;22.93;12.77;;;;;;;;;;4993420;28;20051;-52
2022/03/08 12:29:21;;;;;;;9.73;8.33;;;;;;;;;;5005126;28;20040;-52
2022/03/08 12:32:05;;;;;;;10.73;8.90;;;;;;;;;;4988216;28;20039;-52
2022/03/08 12:34:31;;;;;;;12.60;7.70;;;;;;;;;;5007214;28;20030;-54
2022/03/08 12:37:03;;;;;;;12.70;8.67;;;;;;;;;;4989223;28;20034;-49
2022/03/08 12:39:47;;;;;;;8.97;7.77;;;;;;;;;;4976823;28;20030;-56
2022/03/08 12:42:30;;;;;;;12.30;9.17;;;;;;;;;;4992383;28;20022;-52
2022/03/08 12:44:59;;;;;;;13.00;9.17;;;;;;;;;;5012532;28;20111;-53
2022/03/08 12:47:26;;;;;;;13.50;8.97;;;;;;;;;;4971213;28;20109;-51
2022/03/08 12:49:53;;;;;;;11.63;9.00;;;;;;;;;;5007290;28;20383;-52
2022/03/08 12:52:19;;;;;;;14.00;8.97;;;;;;;;;;4979306;28;20023;-47
2022/03/08 12:54:46;;;;;;;12.93;9.70;;;;;;;;;;4978370;28;20515;-50
2022/03/08 12:57:14;;;;;;;13.13;9.38;;;;;;;;;;4994669;28;20069;-51
2022/03/08 12:59:51;;;;;;;11.63;9.48;;;;;;;;;;5007828;28;20018;-51
2022/03/08 13:02:17;;;;;;;11.23;8.88;;;;;;;;;;4983529;28;20027;-52
2022/03/08 13:04:44;;;;;;;11.05;9.40;;;;;;;;;;4996113;28;20057;-53
2022/03/08 13:07:11;;;;;;;13.38;8.88;;;;;;;;;;5006263;28;20113;-48
2022/03/08 13:09:53;;;;;;;12.35;9.38;;;;;;;;;;5008359;28;20018;-51
2022/03/08 13:12:24;;;;;;;14.57;9.43;;;;;;;;;;4990705;28;20057;-47
2022/03/08 13:15:08;;;;;;;15.52;10.10;;;;;;;;;;4997587;28;20098;-50
2022/03/08 13:17:34;;;;;;;13.18;9.65;;;;;;;;;;4972027;28;20026;-48
2022/03/08 13:20:01;;;;;;;10.75;8.32;;;;;;;;;;5008162;28;20044;-46
2022/03/08 13:22:27;;;;;;;11.60;8.27;;;;;;;;;;4996652;28;20037;-47
2022/03/08 13:25:11;;;;;;;13.05;7.90;;;;;;;;;;4988550;28;20050;-48
2022/03/08 13:27:49;;;;;;;12.55;8.65;;;;;;;;;;4989459;28;20038;-50
2022/03/08 13:30:35;;;;;;;11.30;8.35;;;;;;;;;;4997198;28;20034;-47
2022/03/08 13:33:12;;;;;;;13.32;9.40;;;;;;;;;;4968344;28;20042;-49
2022/03/08 13:35:39;;;;;;;12.05;9.15;;;;;;;;;;4994213;28;20018;-48
2022/03/08 13:38:05;;;;;;;10.95;9.00;;;;;;;;;;4992370;28;20397;-60
2022/03/08 13:40:33;;;;;;;12.15;9.23;;;;;;;;;;4985383;28;20061;-60
2022/03/08 13:42:59;;;;;;;15.20;9.70;;;;;;;;;;4996611;28;20034;-60
2022/03/08 13:45:26;;;;;;;13.02;9.77;;;;;;;;;;4999473;28;20471;-59
2022/03/08 13:47:54;;;;;;;14.65;9.20;;;;;;;;;;4994798;28;20376;-60
2022/03/08 13:50:22;;;;;;;14.65;9.52;;;;;;;;;;4990216;28;20109;-60
2022/03/08 13:52:55;;;;;;;11.25;8.93;;;;;;;;;;5003217;28;20468;-59
2022/03/08 13:55:26;;;;;;;13.93;10.65;;;;;;;;;;4983158;28;20156;-59
2022/03/08 13:57:55;;;;;;;14.02;9.68;;;;;;;;;;4996206;28;20417;-60
2022/03/08 14:00:21;;;;;;;15.50;11.05;;;;;;;;;;4995147;28;20493;-59
2022/03/08 14:02:54;;;;;;;11.95;9.23;;;;;;;;;;4997067;28;20030;-60
2022/03/08 14:05:20;;;;;;;14.25;10.25;;;;;;;;;;5010805;28;20038;-60
2022/03/08 14:07:59;;;;;;;14.68;10.80;;;;;;;;;;4992204;28;20037;-59
2022/03/08 14:10:26;;;;;;;11.25;9.23;;;;;;;;;;5000931;28;20202;-62
2022/03/08 14:12:52;;;;;;;15.98;10.07;;;;;;;;;;4991735;28;20018;-56
2022/03/08 14:15:19;;;;;;;13.65;10.50;;;;;;;;;;4999121;28;20030;-58
2022/03/08 14:17:46;;;;;;;11.23;9.52;;;;;;;;;;4990828;28;20026;-57
2022/03/08 14:20:20;;;;;;;15.70;10.85;;;;;;;;;;4997792;28;20028;-53
2022/03/08 14:22:59;;;;;;;12.60;9.10;;;;;;;;;;4998596;28;20106;-56
2022/03/08 14:25:25;;;;;;;12.15;9.52;;;;;;;;;;5002574;28;20034;-60
2022/03/08 14:27:52;;;;;;;11.98;9.32;;;;;;;;;;4993081;28;20023;-53
2022/03/08 14:30:25;;;;;;;12.15;9.55;;;;;;;;;;4976175;28;20050;-60
2022/03/08 14:32:52;;;;;;;129.82;23.95;;;;;;;;;;4996531;28;20464;-58